createdAt,value
2019-02-10T00:00:31.580Z,95847
2019-02-10T00:05:26.930Z,95849.6
2019-02-10T00:10:22.087Z,95841.9
2019-02-10T00:15:17.591Z,95840.6
2019-02-10T00:20:12.889Z,95853
2019-02-10T00:25:08.361Z,95855.1
2019-02-10T00:30:03.494Z,95854.1
2019-02-10T00:34:58.388Z,95866.3
2019-02-10T00:39:53.648Z,95855.9
2019-02-10T00:44:49.300Z,95851.2
2019-02-10T00:49:44.757Z,95852.8
2019-02-10T00:54:40.137Z,95846.6
2019-02-10T01:04:30.662Z,95842.2
2019-02-10T01:09:25.645Z,95846.4
2019-02-10T01:14:21.210Z,95842.7
2019-02-10T01:19:16.668Z,95842.7
2019-02-10T01:24:12.146Z,95830.3
2019-02-10T01:29:07.633Z,95735.9
2019-02-10T01:34:03.139Z,95823.4
2019-02-10T01:38:58.657Z,95800.3
2019-02-10T01:43:54.138Z,95828.9
2019-02-10T01:48:49.361Z,95825.9
2019-02-10T01:53:44.865Z,95823.5
2019-02-10T01:58:40.651Z,95798.2
2019-02-10T02:03:36.302Z,95836.2
2019-02-10T02:08:31.877Z,95829.8
2019-02-10T02:13:27.352Z,95834.5
2019-02-10T02:18:22.784Z,95829.8
2019-02-10T02:23:18.426Z,95740.4
2019-02-10T02:28:13.726Z,95825.8
2019-02-10T02:33:09.273Z,95818.7
2019-02-10T02:38:04.378Z,95812
2019-02-10T02:42:59.925Z,95813.8
2019-02-10T02:47:55.333Z,95721.3
2019-02-10T02:52:50.996Z,95818
2019-02-10T02:57:46.319Z,95828.9
2019-02-10T03:02:41.863Z,95826.2
2019-02-10T03:07:36.546Z,95832.4
2019-02-10T03:12:31.811Z,95821.4
2019-02-10T03:17:27.186Z,95818.7
2019-02-10T03:22:22.646Z,95820
2019-02-10T03:27:17.951Z,95816.8
2019-02-10T03:32:13.352Z,95805
2019-02-10T03:37:08.954Z,95809.4
2019-02-10T03:42:04.379Z,95806.7
2019-02-10T03:46:59.721Z,95811.6
2019-02-10T03:51:55.204Z,95822.1
2019-02-10T03:56:50.775Z,95832.9
2019-02-10T04:01:46.444Z,95837.4
2019-02-10T04:06:42.111Z,95833.5
2019-02-10T04:16:33.200Z,95826.2
2019-02-10T04:21:28.757Z,95827.9
2019-02-10T04:26:24.247Z,95823.4
2019-02-10T04:31:19.887Z,95818.5
2019-02-10T04:36:14.642Z,95830.3
2019-02-10T04:41:10.187Z,95831.2
2019-02-10T04:51:01.192Z,95832.5
2019-02-10T04:55:56.590Z,95834.9
2019-02-10T05:00:52.127Z,95834.8
2019-02-10T05:05:47.404Z,95852.5
2019-02-10T05:10:42.833Z,95850.8
2019-02-10T05:15:38.369Z,95859.3
2019-02-10T05:20:33.880Z,95861.2
2019-02-10T05:25:28.953Z,95862.2
2019-02-10T05:30:24.349Z,95862.4
2019-02-10T05:35:20.017Z,95878.1
2019-02-10T05:40:15.569Z,95862.9
2019-02-10T05:45:11.307Z,95870.5
2019-02-10T05:50:06.616Z,95868.7
2019-02-10T05:55:01.978Z,95868.6
2019-02-10T05:59:57.505Z,95877.5
2019-02-10T06:04:53.227Z,95877.4
2019-02-10T06:09:48.820Z,95883.9
2019-02-10T06:14:44.235Z,95895.3
2019-02-10T06:19:39.673Z,95890.2
2019-02-10T06:24:35.023Z,95896.4
2019-02-10T06:29:30.621Z,95897.3
2019-02-10T06:34:26.043Z,95898.1
2019-02-10T06:39:21.808Z,95899.5
2019-02-10T06:44:17.430Z,95722.8
2019-02-10T06:49:13.004Z,95896.9
2019-02-10T06:54:08.452Z,95895.8
2019-02-10T06:59:04.008Z,95908.1
2019-02-10T07:03:59.780Z,95902.8
2019-02-10T07:08:55.159Z,95907.8
2019-02-10T07:13:50.337Z,95907.9
2019-02-10T07:18:45.863Z,95911
2019-02-10T07:23:40.908Z,95872.2
2019-02-10T07:28:36.423Z,95901.2
2019-02-10T07:33:31.885Z,95902.3
2019-02-10T07:38:27.505Z,95899.6
2019-02-10T07:43:22.823Z,95896.2
2019-02-10T07:48:18.456Z,95895.2
2019-02-10T07:53:13.826Z,95895.7
2019-02-10T07:58:09.778Z,95895.6
2019-02-10T08:03:05.388Z,95814.7
2019-02-10T08:08:00.920Z,95898.7
2019-02-10T08:12:56.535Z,95888.6
2019-02-10T08:17:53.546Z,95888.9
2019-02-10T08:22:47.710Z,95892.2
2019-02-10T08:27:43.712Z,95880.7
2019-02-10T08:32:39.227Z,95885.1
2019-02-10T08:37:35.030Z,95876.8
2019-02-10T08:42:30.694Z,95872.5
2019-02-10T08:47:33.365Z,95873.4
2019-02-10T08:52:22.232Z,95879.4
2019-02-10T08:57:17.598Z,95868.4
2019-02-10T09:02:13.115Z,95874.2
2019-02-10T09:07:08.800Z,95870.7
2019-02-10T09:12:04.262Z,95868.1
2019-02-10T09:17:00.151Z,95861.5
2019-02-10T09:21:55.897Z,95862.3
2019-02-10T09:26:51.765Z,95862.5
2019-02-10T09:31:47.271Z,95858.6
2019-02-10T09:36:42.878Z,95854.2
2019-02-10T09:41:38.037Z,95851.8
2019-02-10T09:46:33.807Z,95851.5
2019-02-10T09:51:29.081Z,95842.1
2019-02-10T09:56:24.920Z,95496.6
2019-02-10T10:01:19.454Z,95832
2019-02-10T10:06:15.086Z,95821.5
2019-02-10T10:11:10.876Z,95812.8
2019-02-10T10:16:06.877Z,95800.8
2019-02-10T10:21:02.636Z,95785.6
2019-02-10T10:25:58.562Z,95778.9
2019-02-10T10:30:54.399Z,95689.7
2019-02-10T10:35:50.308Z,95683.5
2019-02-10T10:40:46.216Z,95757.6
2019-02-10T10:45:42.342Z,95753.7
2019-02-10T10:50:38.090Z,95674.1
2019-02-10T10:55:34.028Z,95734.2
2019-02-10T11:00:29.909Z,95728
2019-02-10T11:05:25.740Z,95716.6
2019-02-10T11:10:20.966Z,95714
2019-02-10T11:15:16.897Z,95713.4
2019-02-10T11:20:12.834Z,95709.3
2019-02-10T11:25:08.768Z,95717.2
2019-02-10T11:30:04.511Z,95705.6
2019-02-10T11:35:00.317Z,95700.2
2019-02-10T11:39:55.901Z,95688.9
2019-02-10T11:44:51.757Z,95697.8
2019-02-10T11:49:46.992Z,95674.7
2019-02-10T11:54:42.917Z,95639.3
2019-02-10T11:59:38.793Z,95654.3
2019-02-10T12:04:34.856Z,95659.4
2019-02-10T12:09:30.565Z,95646.8
2019-02-10T12:14:26.604Z,95643.2
2019-02-10T12:19:22.033Z,95639.5
2019-02-10T12:24:18.084Z,95632.9
2019-02-10T12:29:14.002Z,95623.2
2019-02-10T12:34:10.039Z,95611.4
2019-02-10T12:39:05.546Z,95610.4
2019-02-10T12:44:01.480Z,95599.5
2019-02-10T12:48:57.202Z,95586.6
2019-02-10T12:53:53.147Z,95590
2019-02-10T12:58:48.798Z,95585.5
2019-02-10T13:03:44.742Z,95510.4
2019-02-10T13:08:40.537Z,95584.6
2019-02-10T13:13:36.591Z,95577.3
2019-02-10T13:18:32.363Z,95544.3
2019-02-10T13:23:28.342Z,95574.6
2019-02-10T13:28:23.933Z,95573
2019-02-10T13:33:19.683Z,95564.5
2019-02-10T13:38:14.817Z,95561.4
2019-02-10T13:43:10.556Z,95565.3
2019-02-10T13:48:06.253Z,95557.1
2019-02-10T13:53:02.179Z,95553.6
2019-02-10T13:57:57.897Z,95553.5
2019-02-10T14:02:53.619Z,95546.9
2019-02-10T14:07:50.773Z,95535.6
2019-02-10T14:12:44.986Z,95530.9
2019-02-10T14:17:40.603Z,95527.7
2019-02-10T14:22:36.524Z,95522.4
2019-02-10T14:27:32.352Z,95522.8
2019-02-10T14:32:28.248Z,95516.5
2019-02-10T14:37:23.968Z,95535.5
2019-02-10T14:42:19.737Z,95511.1
2019-02-10T14:47:15.563Z,95509.2
2019-02-10T14:52:11.377Z,95509.3
2019-02-10T14:57:06.923Z,95501.2
2019-02-10T15:02:02.791Z,95498.8
2019-02-10T15:06:58.320Z,95496.9
2019-02-10T15:11:54.239Z,95494.3
2019-02-10T15:16:50.007Z,95494.4
2019-02-10T15:21:45.808Z,95494.8
2019-02-10T15:26:41.642Z,95491.7
2019-02-10T15:31:37.401Z,95491.7
2019-02-10T15:36:33.413Z,95487.3
2019-02-10T15:41:29.303Z,95485
2019-02-10T15:46:24.903Z,95452.2
2019-02-10T15:51:27.428Z,95482.2
2019-02-10T15:56:16.814Z,95488.6
2019-02-10T16:01:11.233Z,95483.1
2019-02-10T16:06:07.010Z,95482
2019-02-10T16:11:02.893Z,95488.2
2019-02-10T16:15:58.740Z,95485.9
2019-02-10T16:20:54.158Z,95487.4
2019-02-10T16:25:49.976Z,95484.1
2019-02-10T16:30:45.920Z,95479.1
2019-02-10T16:35:41.942Z,95475.4
2019-02-10T16:40:37.753Z,95470
2019-02-10T16:45:33.655Z,95475.2
2019-02-10T16:50:29.494Z,95477.6
2019-02-10T16:55:25.178Z,95480.9
2019-02-10T17:00:20.601Z,95466.7
2019-02-10T17:05:16.447Z,95466.5
2019-02-10T17:10:12.084Z,95460.9
2019-02-10T17:15:07.912Z,95460
2019-02-10T17:20:03.599Z,95462.1
2019-02-10T17:24:58.724Z,95319.9
2019-02-10T17:29:54.558Z,95390
2019-02-10T17:34:50.299Z,95448.1
2019-02-10T17:39:46.034Z,95451.7
2019-02-10T17:44:41.691Z,95456
2019-02-10T17:49:37.304Z,95448.4
2019-02-10T17:54:33.196Z,95446.7
2019-02-10T17:59:28.809Z,94684.7
2019-02-10T18:04:24.430Z,95440.1
2019-02-10T18:09:20.410Z,95439
2019-02-10T18:14:16.071Z,95430.3
2019-02-10T18:19:11.929Z,95443.3
2019-02-10T18:24:07.642Z,95448.8
2019-02-10T18:29:04.146Z,95449.9
2019-02-10T18:34:00.426Z,95433.4
2019-02-10T18:38:56.342Z,95435.8
2019-02-10T18:43:51.888Z,95436.7
2019-02-10T18:48:47.811Z,95355.4
2019-02-10T18:53:43.524Z,95423
2019-02-10T18:58:39.562Z,95421.6
2019-02-10T19:03:35.356Z,95432.4
2019-02-10T19:08:31.801Z,95437
2019-02-10T19:13:27.485Z,95437.5
2019-02-10T19:18:23.246Z,95441
2019-02-10T19:23:18.950Z,95442
2019-02-10T19:28:14.859Z,95442
2019-02-10T19:33:10.676Z,95431.6
2019-02-10T19:38:06.486Z,95444.2
2019-02-10T19:43:01.820Z,95361.4
2019-02-10T19:47:57.557Z,95437.2
2019-02-10T19:52:52.881Z,95436.8
2019-02-10T19:57:48.543Z,95431
2019-02-10T20:02:44.302Z,95336.1
2019-02-10T20:07:40.209Z,95414.6
2019-02-10T20:12:35.935Z,95380.5
2019-02-10T20:17:31.601Z,95317.7
2019-02-10T20:22:26.984Z,95404.4
2019-02-10T20:27:22.559Z,95316.5
2019-02-10T20:32:18.553Z,95324.9
2019-02-10T20:37:14.314Z,95322.5
2019-02-10T20:42:12.285Z,95316.6
2019-02-10T20:47:06.018Z,95323.3
2019-02-10T20:52:01.637Z,95318
2019-02-10T20:56:57.555Z,95312
2019-02-10T21:01:53.313Z,95304.8
2019-02-10T21:06:48.959Z,95299.8
2019-02-10T21:11:44.723Z,95287.8
2019-02-10T21:16:40.537Z,95281.8
2019-02-10T21:21:36.218Z,95280.3
2019-02-10T21:26:31.924Z,95260.2
2019-02-10T21:31:27.342Z,95255
2019-02-10T21:36:23.017Z,95320.1
2019-02-10T21:41:18.656Z,95319.7
2019-02-10T21:46:14.527Z,95348.5
2019-02-10T21:51:10.474Z,95268.3
2019-02-10T21:56:06.178Z,95360.3
2019-02-10T22:01:01.716Z,95233.2
2019-02-10T22:05:57.617Z,95206.5
2019-02-10T22:10:52.979Z,95339.9
2019-02-10T22:15:48.803Z,95222.7
2019-02-10T22:20:44.033Z,95363.6
2019-02-10T22:25:40.426Z,95361.4
2019-02-10T22:30:35.735Z,95214.5
2019-02-10T22:35:31.531Z,95208.7
2019-02-10T22:40:27.369Z,95213.3
2019-02-10T22:45:23.162Z,95202.9
2019-02-10T22:50:18.542Z,95196.1
2019-02-10T22:55:14.266Z,95203
2019-02-10T23:00:10.038Z,95100.1
2019-02-10T23:05:05.782Z,95186.9
2019-02-10T23:10:01.647Z,95189.7
2019-02-10T23:14:57.391Z,95188
2019-02-10T23:19:52.878Z,95190
2019-02-10T23:24:48.972Z,95185.9
2019-02-10T23:29:44.685Z,95179.2
2019-02-10T23:34:40.626Z,95168.9
2019-02-10T23:39:36.439Z,95159
2019-02-10T23:44:32.321Z,95167.4
2019-02-10T23:49:28.114Z,95173.6
2019-02-10T23:54:24.062Z,95183
2019-02-10T23:59:19.727Z,95270.2
